Masuei Maru No41 — JD2285 — position and weather

sailwx.info

Track history (hours):
 
Tides and Currents Weather Stations Pressure Air Temp Water Temp Dewpoint Dewpoint Depression Visibility Wind Speed Wind Dir Waves Ship Positions

Masuei Maru No41

Last reported at 2017-Oct-16 03:56 UTC. Time now 2017-Oct-18 00:17 UTC.
Position N 34°14' E 135°06'.

Length 32 m.

Type: Tug. MMSI: 431301814.

Date/timePositionNaut miles runAvg speedWind from/ knotsBaromVisibWave heightAir tempDewpointWater temp
2017-Oct-16 03:56N 34°14' E 135°06'2 4.2
2017-Oct-16 03:29N 34°14' E 135°08'0 0.0
2017-Oct-16 02:59N 34°14' E 135°08'1 2.3
2017-Oct-16 02:23N 34°14' E 135°06'1 2.4
2017-Oct-16 02:00N 34°14' E 135°05'1 1.0
2017-Oct-16 01:30N 34°13' E 135°06'3 4.9
2017-Oct-16 00:58N 34°13' E 135°09'0 0.0
2017-Oct-15 06:30N 34°13' E 135°09'0 0.0
2017-Oct-15 05:57N 34°13' E 135°09'0 0.0
2017-Oct-15 03:47N 34°13' E 135°09'2 6.1
2017-Oct-15 03:30N 34°13' E 135°07'5 8.9
2017-Oct-15 02:54N 34°08' E 135°06'5 2.6
2017-Oct-15 00:50N 34°13' E 135°07'1 2.4
2017-Oct-15 00:30N 34°13' E 135°08'1 2.6
2017-Oct-14 23:59N 34°14' E 135°08'0 0.1
2017-Oct-14 23:28N 34°14' E 135°08'1 3.1
2017-Oct-14 23:00N 34°14' E 135°06'1 1.8
2017-Oct-14 22:31N 34°14' E 135°05'2 4.1
2017-Oct-14 22:00N 34°14' E 135°08'1 3.0
2017-Oct-14 21:30N 34°14' E 135°06'3 4.9
2017-Oct-14 20:57N 34°13' E 135°09'0 0.0
2017-Oct-14 20:30N 34°13' E 135°09'0 0.0
2017-Oct-14 03:19N 34°13' E 135°09'2 7.4
2017-Oct-14 02:59N 34°11' E 135°08'2 0.4
2017-Oct-13 21:58N 34°13' E 135°07'2 3.5
2017-Oct-13 21:30N 34°13' E 135°09'0 0.0
2017-Oct-13 00:50N 34°13' E 135°09'2 7.4
2017-Oct-13 00:30N 34°14' E 135°06'1 2.9
2017-Oct-13 00:00N 34°14' E 135°08'0 0.8
2017-Oct-12 23:29N 34°14' E 135°07'2 2.9
2017-Oct-12 22:57N 34°14' E 135°06'1 1.0
2017-Oct-12 22:24N 34°13' E 135°06'3 6.2
2017-Oct-12 21:59N 34°13' E 135°09'  
2017-Oct-10 02:03N 34°13' E 135°09'0 2.0
2017-Oct-10 02:00N 34°13' E 135°09'0 0.1
2017-Oct-09 23:25N 34°13' E 135°09'0 0.5
2017-Oct-09 22:59N 34°13' E 135°09'0 0.0
2017-Oct-09 22:29N 34°13' E 135°09'0 0.0
2017-Oct-08 05:21N 34°13' E 135°08'0 0.1
2017-Oct-08 03:05N 34°13' E 135°08'1 5.1
2017-Oct-08 02:58N 34°13' E 135°09'  
Track history (hours):
 
Tides and Currents Weather Stations Pressure Air Temp Water Temp Dewpoint Dewpoint Depression Visibility Wind Speed Wind Dir Waves Ship Positions

Masuei Maru No41

Last reported at 2017-Oct-16 03:56 UTC. Time now 2017-Oct-18 00:17 UTC.
Position N 34°14' E 135°06'.

Length 32 m.

Type: Tug. MMSI: 431301814.

Date/timePositionNaut miles runAvg speedWind from/ knotsBaromVisibWave heightAir tempDewpointWater temp
2017-Oct-16 03:56N 34°14' E 135°06'2 4.2
2017-Oct-16 03:29N 34°14' E 135°08'0 0.0
2017-Oct-16 02:59N 34°14' E 135°08'1 2.3
2017-Oct-16 02:23N 34°14' E 135°06'1 2.4
2017-Oct-16 02:00N 34°14' E 135°05'1 1.0
2017-Oct-16 01:30N 34°13' E 135°06'3 4.9
2017-Oct-16 00:58N 34°13' E 135°09'0 0.0
2017-Oct-15 06:30N 34°13' E 135°09'0 0.0
2017-Oct-15 05:57N 34°13' E 135°09'0 0.0
2017-Oct-15 03:47N 34°13' E 135°09'2 6.1
2017-Oct-15 03:30N 34°13' E 135°07'5 8.9
2017-Oct-15 02:54N 34°08' E 135°06'5 2.6
2017-Oct-15 00:50N 34°13' E 135°07'1 2.4
2017-Oct-15 00:30N 34°13' E 135°08'1 2.6
2017-Oct-14 23:59N 34°14' E 135°08'0 0.1
2017-Oct-14 23:28N 34°14' E 135°08'1 3.1
2017-Oct-14 23:00N 34°14' E 135°06'1 1.8
2017-Oct-14 22:31N 34°14' E 135°05'2 4.1
2017-Oct-14 22:00N 34°14' E 135°08'1 3.0
2017-Oct-14 21:30N 34°14' E 135°06'3 4.9
2017-Oct-14 20:57N 34°13' E 135°09'0 0.0
2017-Oct-14 20:30N 34°13' E 135°09'0 0.0
2017-Oct-14 03:19N 34°13' E 135°09'2 7.4
2017-Oct-14 02:59N 34°11' E 135°08'2 0.4
2017-Oct-13 21:58N 34°13' E 135°07'2 3.5
2017-Oct-13 21:30N 34°13' E 135°09'0 0.0
2017-Oct-13 00:50N 34°13' E 135°09'2 7.4
2017-Oct-13 00:30N 34°14' E 135°06'1 2.9
2017-Oct-13 00:00N 34°14' E 135°08'0 0.8
2017-Oct-12 23:29N 34°14' E 135°07'2 2.9
2017-Oct-12 22:57N 34°14' E 135°06'1 1.0
2017-Oct-12 22:24N 34°13' E 135°06'3 6.2
2017-Oct-12 21:59N 34°13' E 135°09'  
2017-Oct-10 02:03N 34°13' E 135°09'0 2.0
2017-Oct-10 02:00N 34°13' E 135°09'0 0.1
2017-Oct-09 23:25N 34°13' E 135°09'0 0.5
2017-Oct-09 22:59N 34°13' E 135°09'0 0.0
2017-Oct-09 22:29N 34°13' E 135°09'0 0.0
2017-Oct-08 05:21N 34°13' E 135°08'0 0.1
2017-Oct-08 03:05N 34°13' E 135°08'1 5.1
2017-Oct-08 02:58N 34°13' E 135°09'  

Dump ship's entire track history